Time;durP1;ratioP1;P1;durP2;ratioP2;P2;SDS_P1;SDS_P2;PMS_P1;PMS_P2;Temp;Humidity;BMP_temperature;BMP_pressure;BME280_temperature;BME280_humidity;BME280_pressure;Samples;Min_cycle;Max_cycle;Signal;HPM_P1;HPM_P2
2022/02/12 00:02:17;;;;;;;13.20;9.03;;;4.80;99.90;;;;;;5084309;28;20435;-73
2022/02/12 00:04:42;;;;;;;17.53;10.50;;;5.10;99.90;;;;;;5086261;28;20179;-73
2022/02/12 00:07:09;;;;;;;15.30;9.50;;;5.30;99.90;;;;;;5083852;28;20679;-73
2022/02/12 00:09:36;;;;;;;15.63;10.33;;;5.30;99.90;;;;;;5083589;28;20219;-73
2022/02/12 00:12:03;;;;;;;15.60;9.60;;;5.40;99.90;;;;;;5085626;28;20530;-73
2022/02/12 00:14:29;;;;;;;20.27;9.30;;;5.40;99.90;;;;;;5085372;28;20468;-73
2022/02/12 00:16:55;;;;;;;14.73;9.90;;;5.30;99.90;;;;;;5082263;28;20436;-73
2022/02/12 00:19:20;;;;;;;14.20;10.40;;;5.40;99.90;;;;;;5082736;28;21000;-73
2022/02/12 00:21:46;;;;;;;13.53;8.60;;;5.40;99.90;;;;;;5084481;28;20652;-73
2022/02/12 00:24:15;;;;;;;12.70;8.60;;;5.30;99.90;;;;;;5081848;28;20556;-73
2022/02/12 00:26:40;;;;;;;15.73;9.57;;;5.30;99.90;;;;;;5065724;28;20182;-73
2022/02/12 00:29:07;;;;;;;16.50;10.00;;;5.50;99.90;;;;;;5080697;28;20531;-73
2022/02/12 00:31:33;;;;;;;16.07;8.93;;;5.50;99.90;;;;;;5083716;28;20174;-73
2022/02/12 00:33:58;;;;;;;17.30;9.57;;;5.50;99.90;;;;;;5064471;28;21203;-73
2022/02/12 00:36:24;;;;;;;14.47;9.37;;;5.50;99.90;;;;;;5083344;28;20877;-73
2022/02/12 00:38:51;;;;;;;14.67;8.67;;;5.50;99.90;;;;;;5066420;28;20190;-73
2022/02/12 00:41:16;;;;;;;16.60;10.07;;;5.50;99.90;;;;;;5065145;28;20206;-73
2022/02/12 00:43:42;;;;;;;13.97;8.67;;;5.30;99.90;;;;;;5082442;28;20506;-73
2022/02/12 00:46:08;;;;;;;11.60;8.17;;;5.30;99.90;;;;;;5058390;28;20497;-73
2022/02/12 00:48:33;;;;;;;17.10;9.40;;;5.30;99.90;;;;;;5070446;28;20269;-73
2022/02/12 00:51:00;;;;;;;13.57;8.10;;;5.30;99.90;;;;;;5072050;28;20199;-73
2022/02/12 00:53:26;;;;;;;15.80;7.70;;;5.20;99.90;;;;;;5073561;28;20273;-73
2022/02/12 00:55:52;;;;;;;12.10;8.87;;;5.30;99.90;;;;;;5054213;28;20461;-73
2022/02/12 00:58:18;;;;;;;17.33;9.33;;;5.50;99.90;;;;;;5068740;28;20454;-73
2022/02/12 01:00:45;;;;;;;12.00;8.60;;;5.60;99.90;;;;;;5051091;28;20543;-73
2022/02/12 01:03:10;;;;;;;17.13;8.20;;;5.40;99.90;;;;;;5070855;28;20444;-73
2022/02/12 01:05:36;;;;;;;12.30;8.83;;;5.50;99.90;;;;;;5061633;28;20502;-73
2022/02/12 01:08:03;;;;;;;14.73;9.07;;;5.50;99.90;;;;;;5060057;28;20193;-73
2022/02/12 01:10:33;;;;;;;13.60;9.53;;;5.60;99.90;;;;;;5082765;28;20542;-73
2022/02/12 01:12:59;;;;;;;11.40;8.97;;;5.40;99.90;;;;;;5106246;28;20435;-72
2022/02/12 01:15:25;;;;;;;12.07;9.33;;;5.40;99.90;;;;;;5086644;28;20620;-72
2022/02/12 01:17:51;;;;;;;15.80;10.20;;;5.30;99.90;;;;;;5099309;28;20464;-73
2022/02/12 01:20:17;;;;;;;12.50;9.50;;;5.30;99.90;;;;;;5094894;28;20208;-72
2022/02/12 01:22:43;;;;;;;14.60;10.30;;;5.30;99.90;;;;;;5075667;28;20687;-73
2022/02/12 01:25:09;;;;;;;19.77;9.40;;;5.40;99.90;;;;;;5074566;28;20483;-72
2022/02/12 01:27:35;;;;;;;22.10;10.63;;;5.50;99.90;;;;;;5053366;28;20829;-72
2022/02/12 01:30:02;;;;;;;16.80;10.00;;;5.30;99.90;;;;;;5071555;28;20468;-72
2022/02/12 01:32:29;;;;;;;16.13;9.57;;;5.20;99.90;;;;;;5070039;28;20436;-72
2022/02/12 01:34:55;;;;;;;13.20;9.90;;;5.00;99.90;;;;;;5073929;28;20472;-73
2022/02/12 01:37:23;;;;;;;11.87;9.43;;;5.00;99.90;;;;;;5071286;28;21115;-73
2022/02/12 01:39:48;;;;;;;20.30;9.60;;;5.00;99.90;;;;;;5071403;28;20525;-72
2022/02/12 01:42:14;;;;;;;16.67;10.23;;;4.60;99.90;;;;;;5043530;28;21286;-73
2022/02/12 01:44:40;;;;;;;16.10;10.20;;;4.50;99.90;;;;;;5052659;28;20267;-73
2022/02/12 01:47:08;;;;;;;10.57;8.60;;;4.70;99.90;;;;;;5048431;28;20197;-73
2022/02/12 01:49:34;;;;;;;16.33;9.07;;;4.70;99.90;;;;;;5070817;28;20495;-73
2022/02/12 01:52:01;;;;;;;20.77;9.23;;;4.70;99.90;;;;;;5052531;28;20467;-73
2022/02/12 01:54:30;;;;;;;16.63;9.00;;;4.80;99.90;;;;;;5074512;28;20472;-72
2022/02/12 01:56:58;;;;;;;17.07;9.13;;;4.60;99.90;;;;;;5076455;28;20478;-73
2022/02/12 01:59:25;;;;;;;18.93;9.63;;;4.80;99.90;;;;;;5076599;28;20801;-72
2022/02/12 02:01:51;;;;;;;16.40;9.53;;;4.80;99.90;;;;;;5076294;28;21373;-73
2022/02/12 02:04:17;;;;;;;13.77;8.47;;;4.90;99.90;;;;;;5076991;28;20842;-73
2022/02/12 02:06:43;;;;;;;11.53;8.37;;;5.00;99.90;;;;;;5077686;28;20834;-73
2022/02/12 02:09:09;;;;;;;11.90;8.13;;;4.90;99.90;;;;;;5054543;28;20509;-72
2022/02/12 02:11:36;;;;;;;10.43;7.10;;;4.90;99.90;;;;;;5073654;28;20447;-73
2022/02/12 02:14:03;;;;;;;11.30;8.00;;;4.60;99.90;;;;;;5076063;28;21005;-73
2022/02/12 02:16:29;;;;;;;13.67;7.60;;;4.50;99.90;;;;;;5067862;28;20475;-73
2022/02/12 02:18:55;;;;;;;11.33;7.30;;;4.70;99.90;;;;;;5068876;28;20464;-73
2022/02/12 02:21:23;;;;;;;12.77;9.33;;;4.60;99.90;;;;;;5070402;28;20309;-73
2022/02/12 02:23:50;;;;;;;8.77;6.83;;;4.60;99.90;;;;;;5074391;28;20182;-73
2022/02/12 02:26:16;;;;;;;9.07;6.93;;;4.50;99.90;;;;;;5064740;28;20523;-72
2022/02/12 02:28:42;;;;;;;10.33;6.80;;;4.60;99.90;;;;;;5055005;28;20497;-73
2022/02/12 02:31:08;;;;;;;11.60;7.37;;;4.80;99.90;;;;;;5048287;28;20491;-73
2022/02/12 02:33:34;;;;;;;11.67;7.50;;;4.70;99.90;;;;;;5071231;28;21826;-73
2022/02/12 02:35:59;;;;;;;10.93;6.83;;;4.80;99.90;;;;;;5049998;28;20229;-73
2022/02/12 02:38:25;;;;;;;19.63;8.57;;;4.70;99.90;;;;;;5068423;28;20182;-73
2022/02/12 02:40:54;;;;;;;13.53;7.03;;;4.70;99.90;;;;;;5070242;28;21058;-72
2022/02/12 02:43:22;;;;;;;12.10;7.30;;;4.70;99.90;;;;;;5074288;28;20182;-73
2022/02/12 02:45:47;;;;;;;8.67;7.27;;;4.70;99.90;;;;;;5057665;28;20539;-73
2022/02/12 02:48:13;;;;;;;10.60;7.10;;;4.70;99.90;;;;;;5073520;28;20832;-73
2022/02/12 02:56:09;;;;;;;10.60;7.13;;;4.50;99.90;;;;;;5085308;28;20470;-73
2022/02/12 02:58:43;;;;;;;9.13;7.60;;;4.40;99.90;;;;;;5083225;28;20511;-73
2022/02/12 03:01:15;;;;;;;12.63;7.47;;;4.30;99.90;;;;;;5080205;28;20566;-73
2022/02/12 03:03:42;;;;;;;10.27;7.03;;;4.30;99.90;;;;;;5084622;28;20437;-73
2022/02/12 03:06:09;;;;;;;11.47;7.13;;;4.40;99.90;;;;;;5081542;28;20444;-73
2022/02/12 03:08:35;;;;;;;12.23;7.60;;;4.40;99.90;;;;;;5083901;28;20440;-73
2022/02/12 03:11:01;;;;;;;10.17;7.17;;;4.50;99.90;;;;;;5069400;28;20502;-73
2022/02/12 03:13:27;;;;;;;11.13;6.87;;;4.60;99.90;;;;;;5066188;28;20520;-73
2022/02/12 03:15:53;;;;;;;18.03;7.90;;;4.60;99.90;;;;;;5087283;28;21008;-73
2022/02/12 03:18:19;;;;;;;9.80;7.87;;;4.50;99.90;;;;;;5086719;28;20514;-73
2022/02/12 03:20:45;;;;;;;10.70;8.13;;;4.60;99.90;;;;;;5086688;28;20224;-73
2022/02/12 03:23:11;;;;;;;17.50;7.70;;;4.50;99.90;;;;;;5088254;28;20210;-73
2022/02/12 03:25:37;;;;;;;10.40;6.93;;;4.50;99.90;;;;;;5085876;28;20182;-73
2022/02/12 03:28:04;;;;;;;11.53;7.40;;;4.40;99.90;;;;;;5087778;28;20432;-73
2022/02/12 03:30:37;;;;;;;10.60;8.27;;;4.40;99.90;;;;;;5088339;28;21067;-73
2022/02/12 03:33:04;;;;;;;15.60;8.33;;;4.40;99.90;;;;;;5085487;28;20448;-73
2022/02/12 03:35:29;;;;;;;11.00;7.83;;;4.40;99.90;;;;;;5069025;28;20468;-73
2022/02/12 03:38:11;;;;;;;10.93;7.30;;;4.50;99.90;;;;;;5086615;28;20968;-73
2022/02/12 03:40:39;;;;;;;16.27;8.20;;;4.40;99.90;;;;;;5084743;28;20194;-73
2022/02/12 03:43:06;;;;;;;15.50;7.23;;;4.30;99.90;;;;;;5086095;28;20420;-73
2022/02/12 03:45:32;;;;;;;10.43;7.90;;;4.40;99.90;;;;;;5083648;28;20444;-74
2022/02/12 03:47:59;;;;;;;13.93;7.27;;;4.30;99.90;;;;;;5077670;28;20975;-73
2022/02/12 03:50:27;;;;;;;8.43;7.33;;;4.40;99.90;;;;;;5067496;28;20463;-73
2022/02/12 03:52:53;;;;;;;9.20;6.87;;;4.40;99.90;;;;;;5079199;28;20496;-74
2022/02/12 03:55:18;;;;;;;9.50;6.73;;;4.50;99.90;;;;;;5084091;28;20460;-73
2022/02/12 03:57:44;;;;;;;11.33;6.90;;;4.40;99.90;;;;;;5086442;28;20440;-73
2022/02/12 04:00:11;;;;;;;9.33;7.40;;;4.40;99.90;;;;;;5065675;28;20218;-73
2022/02/12 04:02:44;;;;;;;14.47;8.03;;;4.40;99.90;;;;;;5086064;28;20436;-73
2022/02/12 04:05:10;;;;;;;12.00;7.10;;;4.40;99.90;;;;;;5085091;28;21019;-72
2022/02/12 04:07:38;;;;;;;13.43;7.20;;;4.30;99.90;;;;;;5087102;28;20439;-73
2022/02/12 04:10:06;;;;;;;9.37;6.67;;;4.30;99.90;;;;;;5063216;28;20688;-74
2022/02/12 04:12:31;;;;;;;9.10;6.50;;;4.30;99.90;;;;;;5084795;28;20429;-72
2022/02/12 04:14:57;;;;;;;13.13;7.77;;;4.30;99.90;;;;;;5063975;28;20907;-73
2022/02/12 04:17:26;;;;;;;13.03;6.80;;;4.10;99.90;;;;;;5075526;28;20182;-74
2022/02/12 04:19:52;;;;;;;13.50;7.80;;;4.10;99.90;;;;;;5062444;28;20617;-74
2022/02/12 04:22:18;;;;;;;9.63;6.70;;;4.00;99.90;;;;;;5081854;28;20435;-73
2022/02/12 04:24:43;;;;;;;15.30;7.70;;;4.00;99.90;;;;;;5074823;28;20454;-74
2022/02/12 04:27:09;;;;;;;10.30;8.13;;;4.00;99.90;;;;;;5079988;28;20194;-73
2022/02/12 04:29:38;;;;;;;9.33;7.80;;;4.00;99.90;;;;;;5081882;28;20206;-73
2022/02/12 04:32:04;;;;;;;12.27;7.50;;;3.90;99.90;;;;;;5081683;28;20209;-73
2022/02/12 04:34:29;;;;;;;17.13;8.07;;;3.90;99.90;;;;;;5073348;28;20473;-73
2022/02/12 04:36:56;;;;;;;13.20;8.37;;;3.90;99.90;;;;;;5074374;28;20536;-73
2022/02/12 04:39:22;;;;;;;8.37;7.10;;;3.90;99.90;;;;;;5083507;28;20248;-73
2022/02/12 04:41:47;;;;;;;15.83;7.77;;;3.80;99.90;;;;;;5083542;28;20515;-73
2022/02/12 04:44:13;;;;;;;16.37;7.90;;;3.80;99.90;;;;;;5085486;28;20437;-73
2022/02/12 04:46:39;;;;;;;18.43;8.37;;;3.70;99.90;;;;;;5084323;28;20194;-72
2022/02/12 04:49:05;;;;;;;9.40;7.73;;;3.70;99.90;;;;;;5084937;28;20188;-73
2022/02/12 04:51:31;;;;;;;17.53;7.90;;;3.70;99.90;;;;;;5083448;28;20193;-73
2022/02/12 04:53:59;;;;;;;12.13;8.73;;;3.60;99.90;;;;;;5066035;28;20543;-73
2022/02/12 04:56:25;;;;;;;21.90;8.80;;;3.70;99.90;;;;;;5066227;28;20425;-73
2022/02/12 04:58:51;;;;;;;13.43;9.00;;;3.70;99.90;;;;;;5080212;28;20436;-73
2022/02/12 05:01:21;;;;;;;10.07;8.00;;;3.70;99.90;;;;;;5057908;28;20464;-72
2022/02/12 05:03:51;;;;;;;14.13;8.30;;;3.60;99.90;;;;;;5060325;28;20432;-73
2022/02/12 05:06:18;;;;;;;13.60;9.07;;;3.70;99.90;;;;;;5081358;28;20472;-73
2022/02/12 05:08:44;;;;;;;14.50;8.20;;;3.50;99.90;;;;;;5080197;28;20430;-73
2022/02/12 05:11:10;;;;;;;15.47;9.10;;;3.50;99.90;;;;;;5081074;28;20536;-72
2022/02/12 05:13:36;;;;;;;14.80;9.60;;;3.50;99.90;;;;;;5085067;28;20999;-73
2022/02/12 05:16:02;;;;;;;13.03;8.27;;;3.60;99.90;;;;;;5082602;28;20551;-72
2022/02/12 05:18:28;;;;;;;15.50;8.70;;;3.30;99.90;;;;;;5082834;28;20220;-72
2022/02/12 05:20:54;;;;;;;14.87;8.97;;;3.40;99.90;;;;;;5067789;28;20472;-72
2022/02/12 05:23:20;;;;;;;13.00;9.00;;;3.50;99.90;;;;;;5071402;28;20194;-72
2022/02/12 05:25:45;;;;;;;15.60;8.57;;;3.50;99.90;;;;;;5074767;28;20183;-73
2022/02/12 05:28:11;;;;;;;12.93;8.13;;;3.40;99.90;;;;;;5062656;28;20613;-73
2022/02/12 05:30:36;;;;;;;12.87;8.67;;;3.40;99.90;;;;;;5082508;28;20301;-73
2022/02/12 05:33:02;;;;;;;13.47;8.70;;;3.30;99.90;;;;;;5060391;28;20262;-73
2022/02/12 05:35:28;;;;;;;14.83;9.30;;;3.30;99.90;;;;;;5082363;28;20202;-73
2022/02/12 05:37:53;;;;;;;13.37;10.20;;;3.30;99.90;;;;;;5065572;28;20203;-73
2022/02/12 05:40:19;;;;;;;15.43;9.97;;;3.40;99.90;;;;;;5083243;28;20533;-73
2022/02/12 05:42:44;;;;;;;12.80;9.23;;;3.30;99.90;;;;;;5082061;28;20175;-72
2022/02/12 05:45:10;;;;;;;14.57;9.67;;;3.20;99.90;;;;;;5077673;28;20190;-72
2022/02/12 05:47:40;;;;;;;13.90;9.90;;;3.20;99.90;;;;;;5081701;28;20182;-72
2022/02/12 05:50:07;;;;;;;21.80;9.70;;;3.10;99.90;;;;;;5064032;28;20206;-72
2022/02/12 05:52:32;;;;;;;13.43;10.20;;;3.10;99.90;;;;;;5057669;28;20977;-73
2022/02/12 05:54:58;;;;;;;13.03;10.13;;;3.20;99.90;;;;;;5056459;28;20461;-73
2022/02/12 05:57:24;;;;;;;14.33;9.43;;;3.20;99.90;;;;;;5075970;28;20209;-73
2022/02/12 05:59:49;;;;;;;15.73;9.90;;;3.20;99.90;;;;;;5055278;28;20205;-73
2022/02/12 06:02:15;;;;;;;17.97;10.43;;;3.00;99.90;;;;;;5075506;28;20735;-73
2022/02/12 06:04:40;;;;;;;14.33;9.27;;;3.10;99.90;;;;;;5055999;28;20218;-72
2022/02/12 06:07:06;;;;;;;16.00;10.60;;;3.10;99.90;;;;;;5066654;28;20659;-72
2022/02/12 06:09:32;;;;;;;13.63;9.63;;;3.20;99.90;;;;;;5052579;28;20271;-73
2022/02/12 06:11:57;;;;;;;14.83;9.50;;;3.20;99.90;;;;;;5048792;28;20815;-72
2022/02/12 06:14:23;;;;;;;11.10;9.27;;;3.10;99.90;;;;;;5067320;28;20221;-73
2022/02/12 06:16:49;;;;;;;20.53;9.80;;;3.10;99.90;;;;;;5076217;28;20676;-73
2022/02/12 06:19:14;;;;;;;15.67;9.47;;;3.10;99.90;;;;;;5073703;28;20515;-73
2022/02/12 06:21:40;;;;;;;14.90;9.63;;;3.10;99.90;;;;;;5045408;28;22227;-73
2022/02/12 06:24:05;;;;;;;16.17;10.47;;;3.10;99.90;;;;;;5068797;28;20198;-73
2022/02/12 06:26:31;;;;;;;14.57;9.20;;;3.00;99.90;;;;;;5068281;28;20181;-73
2022/02/12 06:28:57;;;;;;;15.23;9.30;;;3.10;99.90;;;;;;5042944;28;20197;-73
2022/02/12 06:31:22;;;;;;;13.90;9.90;;;3.20;99.90;;;;;;5049912;28;20183;-73
2022/02/12 06:33:48;;;;;;;14.10;10.47;;;3.10;99.90;;;;;;5065923;28;20283;-73
2022/02/12 06:36:13;;;;;;;18.10;10.40;;;3.10;99.90;;;;;;5064838;28;20217;-72
2022/02/12 06:38:39;;;;;;;20.60;11.17;;;3.20;99.90;;;;;;5066657;28;20248;-72
2022/02/12 06:41:05;;;;;;;17.10;11.20;;;3.20;99.90;;;;;;5067227;28;20228;-72
2022/02/12 06:43:30;;;;;;;18.90;11.10;;;3.20;99.90;;;;;;5068195;28;20204;-72
2022/02/12 06:45:56;;;;;;;19.73;10.70;;;3.20;99.90;;;;;;5047590;28;20186;-72
2022/02/12 06:48:22;;;;;;;17.33;10.87;;;3.30;99.90;;;;;;5067319;28;20182;-72
2022/02/12 06:50:48;;;;;;;21.67;10.57;;;3.20;99.90;;;;;;5067174;28;20293;-73
2022/02/12 06:53:14;;;;;;;12.70;9.87;;;3.20;99.90;;;;;;5068514;28;20444;-73
2022/02/12 06:55:40;;;;;;;19.20;11.23;;;3.30;99.90;;;;;;5068562;28;20214;-73
2022/02/12 06:58:05;;;;;;;18.67;10.17;;;3.40;99.90;;;;;;5065789;28;20522;-73
2022/02/12 07:00:31;;;;;;;13.93;10.80;;;3.30;99.90;;;;;;5068124;28;20584;-73
2022/02/12 07:02:57;;;;;;;20.10;9.87;;;3.40;99.90;;;;;;5060513;28;21030;-72
2022/02/12 07:05:23;;;;;;;16.37;10.40;;;3.40;99.90;;;;;;5065936;28;20439;-73
2022/02/12 07:07:49;;;;;;;22.23;11.53;;;3.40;99.90;;;;;;5041040;28;20197;-73
2022/02/12 07:10:17;;;;;;;14.70;10.33;;;3.20;99.90;;;;;;5067665;28;20329;-72
2022/02/12 07:12:43;;;;;;;18.27;11.50;;;3.20;99.90;;;;;;5067808;28;20455;-73
2022/02/12 07:15:10;;;;;;;15.93;10.00;;;3.10;99.90;;;;;;5069787;28;20463;-72
2022/02/12 07:17:39;;;;;;;16.00;10.90;;;3.20;99.90;;;;;;5066785;28;20886;-73
2022/02/12 07:20:06;;;;;;;13.20;9.90;;;3.20;99.90;;;;;;5067371;28;20875;-73
2022/02/12 07:22:32;;;;;;;15.90;11.03;;;3.30;99.90;;;;;;5067185;28;20476;-73
2022/02/12 07:24:58;;;;;;;22.83;10.70;;;3.20;99.90;;;;;;5068175;28;20471;-72
2022/02/12 07:27:23;;;;;;;18.00;11.00;;;3.20;99.90;;;;;;5071559;28;20221;-71
2022/02/12 07:29:49;;;;;;;19.43;11.50;;;3.30;99.90;;;;;;5053784;28;20210;-72
2022/02/12 07:32:14;;;;;;;18.83;10.30;;;3.30;99.90;;;;;;5070354;28;20190;-72
2022/02/12 07:34:40;;;;;;;12.57;9.73;;;3.30;99.90;;;;;;5070966;28;20206;-75
2022/02/12 07:37:06;;;;;;;16.20;10.33;;;3.30;99.90;;;;;;5050435;28;20958;-73
2022/02/12 07:39:32;;;;;;;19.47;10.30;;;3.20;99.90;;;;;;5071430;28;20232;-72
2022/02/12 07:41:58;;;;;;;16.53;10.80;;;3.30;99.90;;;;;;5068341;28;20691;-74
2022/02/12 07:44:24;;;;;;;23.87;10.33;;;3.20;99.90;;;;;;5073184;28;20454;-74
2022/02/12 07:46:50;;;;;;;14.43;11.47;;;3.10;99.90;;;;;;5069172;28;20453;-72
2022/02/12 07:49:16;;;;;;;12.93;10.77;;;3.10;99.90;;;;;;5070615;28;21700;-74
2022/02/12 07:51:42;;;;;;;15.90;10.40;;;3.30;99.90;;;;;;5073813;28;20436;-72
2022/02/12 07:54:08;;;;;;;16.90;11.10;;;3.40;99.90;;;;;;5070396;28;20489;-72
2022/02/12 07:56:33;;;;;;;15.27;10.70;;;3.40;99.90;;;;;;5079486;28;20186;-72
2022/02/12 07:58:59;;;;;;;17.70;10.63;;;3.50;99.90;;;;;;5075693;28;20193;-73
2022/02/12 08:01:25;;;;;;;14.93;10.87;;;3.60;99.90;;;;;;5077298;28;20432;-72
2022/02/12 08:03:50;;;;;;;24.23;11.00;;;3.50;99.90;;;;;;5072762;28;20187;-72
2022/02/12 08:09:11;;;;;;;17.77;10.60;;;3.60;99.90;;;;;;4992768;28;20771;-71
2022/02/12 08:11:38;;;;;;;19.63;11.73;;;3.60;99.90;;;;;;5068439;28;20440;-73
2022/02/12 08:14:05;;;;;;;15.13;10.83;;;3.70;99.90;;;;;;5076235;28;20188;-72
2022/02/12 08:16:30;;;;;;;19.00;11.50;;;3.80;99.90;;;;;;5063238;28;20442;-72
2022/02/12 08:18:56;;;;;;;15.23;10.40;;;4.00;99.90;;;;;;5088081;28;21218;-72
2022/02/12 08:21:21;;;;;;;13.97;11.10;;;4.00;99.90;;;;;;5076426;28;20200;-74
2022/02/12 08:23:47;;;;;;;14.50;10.93;;;4.00;99.90;;;;;;5093757;28;20171;-73
2022/02/12 08:26:14;;;;;;;20.53;11.17;;;3.90;99.90;;;;;;5092991;28;20381;-73
2022/02/12 08:28:41;;;;;;;16.47;11.00;;;3.90;99.90;;;;;;5085501;28;20300;-72
2022/02/12 08:31:07;;;;;;;23.00;11.07;;;3.90;99.90;;;;;;5098667;28;20889;-72
2022/02/12 08:33:32;;;;;;;16.03;10.30;;;4.00;99.90;;;;;;5099378;28;20478;-72
2022/02/12 08:35:58;;;;;;;17.27;10.20;;;4.10;99.90;;;;;;5093323;28;20328;-73
2022/02/12 08:38:24;;;;;;;16.97;10.30;;;4.00;99.90;;;;;;5089930;28;20602;-73
2022/02/12 08:40:49;;;;;;;18.27;11.10;;;4.00;99.90;;;;;;5080214;28;20209;-75
2022/02/12 08:43:15;;;;;;;16.53;10.40;;;3.90;99.90;;;;;;5072799;28;20216;-72
2022/02/12 08:45:41;;;;;;;13.30;9.53;;;4.10;99.90;;;;;;5069816;28;20210;-74
2022/02/12 08:48:09;;;;;;;12.60;9.23;;;4.30;99.90;;;;;;5085171;28;20238;-73
2022/02/12 08:50:36;;;;;;;15.77;10.70;;;4.30;99.90;;;;;;5089925;28;20230;-73
2022/02/12 08:53:01;;;;;;;13.60;10.17;;;4.40;99.90;;;;;;5064253;28;20498;-73
2022/02/12 08:55:28;;;;;;;12.23;9.30;;;4.40;99.90;;;;;;5075747;28;20468;-73
2022/02/12 08:57:54;;;;;;;19.27;10.23;;;4.50;99.90;;;;;;5077545;28;20178;-73
2022/02/12 09:00:21;;;;;;;16.17;9.70;;;4.50;99.90;;;;;;5080453;28;20464;-73
2022/02/12 09:02:47;;;;;;;18.23;9.60;;;4.60;99.90;;;;;;5059081;28;22423;-73
2022/02/12 09:05:12;;;;;;;13.80;8.70;;;4.60;99.90;;;;;;5077924;28;20466;-73
2022/02/12 09:07:38;;;;;;;15.83;9.27;;;4.60;99.90;;;;;;5069807;28;20285;-73
2022/02/12 09:10:05;;;;;;;13.97;8.67;;;4.80;99.90;;;;;;5074797;28;20206;-74
2022/02/12 09:12:31;;;;;;;16.73;8.67;;;4.80;99.90;;;;;;5058622;28;20315;-74
2022/02/12 09:14:57;;;;;;;14.00;8.33;;;4.80;99.90;;;;;;5074294;28;21360;-73
2022/02/12 09:17:23;;;;;;;12.40;9.10;;;4.80;99.90;;;;;;5057009;28;20706;-74
2022/02/12 09:19:48;;;;;;;15.67;8.77;;;4.80;99.90;;;;;;5078645;28;20478;-74
2022/02/12 09:22:15;;;;;;;13.13;8.80;;;5.00;99.90;;;;;;5062297;28;20187;-74
2022/02/12 09:24:41;;;;;;;16.67;9.37;;;5.10;99.90;;;;;;5078975;28;20212;-72
2022/02/12 09:27:06;;;;;;;13.27;8.50;;;5.00;99.90;;;;;;5074405;28;20446;-73
2022/02/12 09:29:32;;;;;;;16.00;8.10;;;5.00;99.90;;;;;;5070357;28;20567;-73
2022/02/12 09:31:58;;;;;;;10.90;7.80;;;4.80;99.90;;;;;;5074129;28;20201;-74
2022/02/12 09:34:23;;;;;;;11.10;7.63;;;4.90;99.90;;;;;;5058854;28;20194;-74
2022/02/12 09:36:49;;;;;;;12.77;7.83;;;5.10;99.90;;;;;;5073098;28;20211;-74
2022/02/12 09:39:15;;;;;;;15.13;9.17;;;5.20;99.90;;;;;;5077707;28;20275;-74
2022/02/12 09:41:43;;;;;;;15.10;7.90;;;5.30;99.90;;;;;;5076976;28;20211;-75
2022/02/12 09:44:08;;;;;;;12.83;7.50;;;5.20;99.90;;;;;;5057493;28;20981;-75
2022/02/12 09:46:45;;;;;;;10.50;7.27;;;5.30;99.90;;;;;;5074910;28;20433;-74
2022/02/12 09:49:11;;;;;;;24.73;8.77;;;5.40;99.90;;;;;;5060179;28;20186;-73
2022/02/12 09:51:40;;;;;;;15.43;7.43;;;5.50;99.90;;;;;;5077660;28;20433;-74
2022/02/12 09:54:05;;;;;;;13.23;7.03;;;5.50;99.90;;;;;;5073359;28;20428;-73
2022/02/12 09:56:33;;;;;;;9.30;6.80;;;5.50;99.90;;;;;;5078433;28;21192;-72
2022/02/12 09:58:59;;;;;;;14.70;7.27;;;5.50;99.90;;;;;;5073885;28;20217;-74
2022/02/12 10:01:25;;;;;;;13.50;7.40;;;5.50;99.90;;;;;;5073314;28;20440;-74
2022/02/12 10:03:52;;;;;;;9.27;6.40;;;5.70;99.90;;;;;;5058527;28;20211;-74
2022/02/12 10:06:38;;;;;;;14.60;7.37;;;5.70;99.90;;;;;;5058112;28;20679;-74
2022/02/12 10:09:05;;;;;;;10.57;7.00;;;5.80;99.90;;;;;;5055276;28;20456;-74
2022/02/12 10:11:51;;;;;;;11.97;6.37;;;5.80;99.90;;;;;;5073262;28;20833;-75
2022/02/12 10:14:25;;;;;;;9.70;6.53;;;5.70;99.90;;;;;;5072748;28;20472;-75
2022/02/12 10:16:58;;;;;;;19.73;6.87;;;5.90;99.90;;;;;;5086757;28;20436;-74
2022/02/12 10:19:29;;;;;;;11.00;7.30;;;5.90;99.90;;;;;;5054510;28;20452;-74
2022/02/12 10:22:15;;;;;;;11.93;6.73;;;6.00;99.90;;;;;;5077396;28;21102;-73
2022/02/12 10:25:09;;;;;;;11.30;6.70;;;6.10;99.90;;;;;;5070845;28;20440;-75
2022/02/12 10:27:37;;;;;;;11.83;6.80;;;6.10;99.90;;;;;;5072422;28;21120;-73
2022/02/12 10:30:04;;;;;;;15.17;6.57;;;6.20;99.90;;;;;;5067747;28;20537;-75
2022/02/12 10:32:30;;;;;;;12.87;6.70;;;6.40;99.90;;;;;;5073677;28;20451;-73
2022/02/12 10:35:09;;;;;;;10.17;6.27;;;6.40;99.90;;;;;;5072506;28;20456;-75
2022/02/12 10:37:41;;;;;;;8.03;6.13;;;6.40;99.90;;;;;;5056252;28;20204;-74
2022/02/12 10:40:07;;;;;;;13.13;7.80;;;6.60;99.90;;;;;;5075650;28;20456;-75
2022/02/12 10:42:34;;;;;;;12.47;7.03;;;6.70;99.90;;;;;;5075761;28;20435;-75
2022/02/12 10:45:00;;;;;;;14.37;6.80;;;6.80;99.90;;;;;;5073792;28;20933;-75
2022/02/12 10:47:26;;;;;;;9.60;6.37;;;6.90;99.90;;;;;;5070771;28;20440;-75
2022/02/12 10:49:52;;;;;;;16.77;8.57;;;6.80;99.90;;;;;;5078284;28;20549;-74
2022/02/12 10:52:19;;;;;;;14.50;7.70;;;6.90;99.90;;;;;;5072762;28;20185;-74
2022/02/12 10:54:47;;;;;;;11.87;6.77;;;7.00;99.90;;;;;;5080666;28;20973;-74
2022/02/12 10:57:15;;;;;;;11.80;6.70;;;7.10;99.90;;;;;;5060243;28;20441;-75
2022/02/12 10:59:44;;;;;;;17.23;7.60;;;7.00;99.90;;;;;;5080244;28;20463;-75
2022/02/12 11:02:15;;;;;;;10.10;6.77;;;6.90;99.90;;;;;;5077068;28;20459;-74
2022/02/12 11:04:42;;;;;;;10.10;7.80;;;7.00;99.90;;;;;;5058907;28;20447;-74
2022/02/12 11:07:16;;;;;;;10.43;6.90;;;7.00;99.90;;;;;;5079781;28;20836;-74
2022/02/12 11:09:46;;;;;;;10.53;7.70;;;7.20;99.90;;;;;;5084760;28;20444;-74
2022/02/12 11:12:13;;;;;;;13.13;7.57;;;7.20;99.90;;;;;;5086305;28;20933;-73
2022/02/12 11:14:43;;;;;;;11.60;7.00;;;7.30;99.90;;;;;;5087041;28;20463;-73
2022/02/12 11:17:15;;;;;;;9.60;6.40;;;7.20;99.90;;;;;;5084630;28;20448;-74
2022/02/12 11:19:43;;;;;;;11.20;7.20;;;7.10;99.90;;;;;;5082203;28;20460;-72
2022/02/12 11:22:10;;;;;;;11.27;8.23;;;7.20;99.90;;;;;;5063518;28;20536;-73
2022/02/12 11:24:43;;;;;;;13.30;6.57;;;7.40;99.90;;;;;;5072772;28;20514;-73
2022/02/12 11:27:20;;;;;;;9.17;6.40;;;7.50;99.90;;;;;;5055319;28;20452;-75
2022/02/12 11:29:54;;;;;;;13.97;7.40;;;7.40;99.90;;;;;;5065733;28;20458;-74
2022/02/12 11:32:23;;;;;;;14.00;7.37;;;7.50;99.90;;;;;;5071173;28;20505;-73
2022/02/12 11:35:09;;;;;;;9.00;6.13;;;7.70;99.90;;;;;;5053112;28;20519;-74
2022/02/12 11:37:38;;;;;;;12.27;6.40;;;7.80;99.90;;;;;;5072377;28;20443;-74
2022/02/12 11:40:27;;;;;;;11.13;6.27;;;7.80;99.90;;;;;;5074827;28;20452;-77
2022/02/12 11:42:57;;;;;;;12.70;7.20;;;7.90;99.90;;;;;;5076351;28;21178;-78
2022/02/12 11:45:47;;;;;;;12.33;6.93;;;8.00;99.90;;;;;;5079727;28;20436;-78
2022/02/12 11:48:25;;;;;;;8.80;6.93;;;8.10;99.90;;;;;;5062561;28;20470;-78
2022/02/12 11:51:05;;;;;;;14.87;6.47;;;8.10;99.90;;;;;;5077798;28;21014;-78
2022/02/12 11:53:37;;;;;;;11.23;6.20;;;8.30;99.90;;;;;;5061479;28;20456;-78
2022/02/12 11:56:22;;;;;;;13.37;6.23;;;8.40;99.90;;;;;;5060122;28;20464;-77
2022/02/12 11:58:59;;;;;;;14.67;6.60;;;8.50;99.90;;;;;;5076890;28;20444;-78
2022/02/12 12:01:28;;;;;;;14.60;6.33;;;8.50;99.90;;;;;;5077354;28;20443;-77
2022/02/12 12:04:11;;;;;;;16.23;7.10;;;8.40;99.90;;;;;;5077728;28;20429;-78
2022/02/12 12:06:39;;;;;;;10.20;6.37;;;8.80;99.90;;;;;;5071590;28;21310;-77
2022/02/12 12:09:06;;;;;;;7.90;6.83;;;9.10;99.90;;;;;;5056183;28;20457;-77
2022/02/12 12:11:32;;;;;;;9.20;6.50;;;9.50;99.90;;;;;;5078834;28;20432;-77
2022/02/12 12:14:16;;;;;;;8.10;6.00;;;10.40;99.90;;;;;;5071844;28;20432;-78
2022/02/12 12:16:58;;;;;;;9.87;6.80;;;12.30;99.90;;;;;;5057588;28;20437;-78
2022/02/12 12:19:38;;;;;;;16.07;7.07;;;14.00;99.90;;;;;;5076077;28;20502;-79
2022/02/12 12:22:08;;;;;;;10.30;6.37;;;15.20;99.90;;;;;;5055740;28;20442;-78
2022/02/12 12:24:35;;;;;;;11.20;6.47;;;16.50;95.90;;;;;;5083811;28;20937;-78
2022/02/12 12:27:01;;;;;;;8.33;6.73;;;17.70;91.50;;;;;;5080149;28;20429;-78
2022/02/12 12:32:17;;;;;;;7.30;6.20;;;18.90;78.10;;;;;;5079544;28;20447;-78
2022/02/12 12:35:00;;;;;;;10.10;6.70;;;19.20;71.80;;;;;;5064983;28;20551;-79
2022/02/12 12:37:27;;;;;;;9.60;7.10;;;19.70;68.90;;;;;;5059960;28;20471;-78
2022/02/12 12:39:58;;;;;;;9.00;5.83;;;20.30;63.80;;;;;;5057009;28;20501;-78
2022/02/12 12:42:27;;;;;;;10.20;5.50;;;20.10;59.20;;;;;;5077036;28;20440;-78
2022/02/12 12:45:14;;;;;;;13.03;6.23;;;20.40;57.60;;;;;;5071750;28;20440;-79
2022/02/12 12:47:54;;;;;;;8.43;5.37;;;20.30;56.60;;;;;;5060349;28;20452;-79
2022/02/12 12:50:20;;;;;;;9.13;5.90;;;20.70;56.60;;;;;;5079899;28;20630;-78
2022/02/12 12:52:46;;;;;;;10.20;6.40;;;20.70;55.90;;;;;;5060252;28;20464;-79
2022/02/12 12:55:19;;;;;;;8.10;5.70;;;20.60;55.00;;;;;;5076896;28;20548;-79
2022/02/12 12:57:48;;;;;;;7.87;6.07;;;20.00;54.70;;;;;;5072878;28;20251;-78
2022/02/12 13:00:18;;;;;;;8.60;5.83;;;19.90;54.60;;;;;;5076605;28;20491;-78